sensor_id;sensor_type;location;lat;lon;timestamp;P1;durP1;ratioP1;P2;durP2;ratioP2
11996;SDS011;6058;48.704;9.474;2023-01-06T00:01:41;11.67;;;5.13;;
11996;SDS011;6058;48.704;9.474;2023-01-06T00:16:49;11.27;;;6.17;;
11996;SDS011;6058;48.704;9.474;2023-01-06T00:19:40;9.50;;;6.07;;
11996;SDS011;6058;48.704;9.474;2023-01-06T00:22:41;9.80;;;6.20;;
11996;SDS011;6058;48.704;9.474;2023-01-06T00:43:32;9.13;;;6.23;;
11996;SDS011;6058;48.704;9.474;2023-01-06T00:46:13;10.30;;;6.30;;
11996;SDS011;6058;48.704;9.474;2023-01-06T00:49:16;12.10;;;6.40;;
11996;SDS011;6058;48.704;9.474;2023-01-06T00:51:53;9.43;;;6.20;;
11996;SDS011;6058;48.704;9.474;2023-01-06T00:54:31;9.73;;;6.20;;
11996;SDS011;6058;48.704;9.474;2023-01-06T00:57:04;7.47;;;5.23;;
11996;SDS011;6058;48.704;9.474;2023-01-06T01:00:13;8.23;;;5.33;;
11996;SDS011;6058;48.704;9.474;2023-01-06T01:09:12;8.87;;;6.13;;
11996;SDS011;6058;48.704;9.474;2023-01-06T01:12:01;9.30;;;6.00;;
11996;SDS011;6058;48.704;9.474;2023-01-06T01:14:51;9.50;;;5.50;;
11996;SDS011;6058;48.704;9.474;2023-01-06T01:17:50;7.10;;;5.93;;
11996;SDS011;6058;48.704;9.474;2023-01-06T01:20:45;10.17;;;5.90;;
11996;SDS011;6058;48.704;9.474;2023-01-06T01:23:29;6.57;;;5.00;;
11996;SDS011;6058;48.704;9.474;2023-01-06T01:26:22;6.07;;;5.27;;
11996;SDS011;6058;48.704;9.474;2023-01-06T01:29:24;6.33;;;5.63;;
11996;SDS011;6058;48.704;9.474;2023-01-06T01:32:07;6.40;;;4.77;;
11996;SDS011;6058;48.704;9.474;2023-01-06T01:34:55;7.40;;;4.70;;
11996;SDS011;6058;48.704;9.474;2023-01-06T01:37:57;10.87;;;5.33;;
11996;SDS011;6058;48.704;9.474;2023-01-06T01:40:47;8.33;;;5.30;;
11996;SDS011;6058;48.704;9.474;2023-01-06T01:46:59;11.50;;;5.37;;
11996;SDS011;6058;48.704;9.474;2023-01-06T01:50:20;9.27;;;5.67;;
11996;SDS011;6058;48.704;9.474;2023-01-06T01:59:04;7.33;;;5.17;;
11996;SDS011;6058;48.704;9.474;2023-01-06T02:37:51;10.33;;;5.30;;
11996;SDS011;6058;48.704;9.474;2023-01-06T02:54:27;8.83;;;5.40;;
11996;SDS011;6058;48.704;9.474;2023-01-06T02:57:25;8.60;;;4.83;;
11996;SDS011;6058;48.704;9.474;2023-01-06T03:00:15;6.40;;;5.00;;
11996;SDS011;6058;48.704;9.474;2023-01-06T03:03:06;6.47;;;4.87;;
11996;SDS011;6058;48.704;9.474;2023-01-06T03:05:56;6.20;;;5.07;;
11996;SDS011;6058;48.704;9.474;2023-01-06T03:08:50;6.07;;;4.57;;
11996;SDS011;6058;48.704;9.474;2023-01-06T03:11:49;6.27;;;5.00;;
11996;SDS011;6058;48.704;9.474;2023-01-06T03:14:38;7.40;;;5.30;;
11996;SDS011;6058;48.704;9.474;2023-01-06T03:17:29;6.90;;;4.73;;
11996;SDS011;6058;48.704;9.474;2023-01-06T03:20:34;8.07;;;4.73;;
11996;SDS011;6058;48.704;9.474;2023-01-06T03:23:37;7.00;;;4.93;;
11996;SDS011;6058;48.704;9.474;2023-01-06T03:32:46;7.67;;;5.50;;
11996;SDS011;6058;48.704;9.474;2023-01-06T03:35:54;8.13;;;4.83;;
11996;SDS011;6058;48.704;9.474;2023-01-06T03:38:57;8.20;;;5.27;;
11996;SDS011;6058;48.704;9.474;2023-01-06T03:42:08;12.27;;;5.73;;
11996;SDS011;6058;48.704;9.474;2023-01-06T03:45:03;8.47;;;5.10;;
11996;SDS011;6058;48.704;9.474;2023-01-06T03:48:09;10.53;;;5.83;;
11996;SDS011;6058;48.704;9.474;2023-01-06T03:57:22;12.67;;;6.70;;
11996;SDS011;6058;48.704;9.474;2023-01-06T04:03:07;10.83;;;5.47;;
11996;SDS011;6058;48.704;9.474;2023-01-06T04:06:01;7.27;;;5.90;;
11996;SDS011;6058;48.704;9.474;2023-01-06T04:09:04;14.23;;;6.23;;
11996;SDS011;6058;48.704;9.474;2023-01-06T04:12:05;9.67;;;5.77;;
11996;SDS011;6058;48.704;9.474;2023-01-06T04:15:15;8.07;;;5.20;;
11996;SDS011;6058;48.704;9.474;2023-01-06T05:21:07;3.67;;;3.37;;
11996;SDS011;6058;48.704;9.474;2023-01-06T05:23:56;3.60;;;3.10;;
11996;SDS011;6058;48.704;9.474;2023-01-06T05:26:58;5.37;;;3.43;;
11996;SDS011;6058;48.704;9.474;2023-01-06T05:29:55;4.40;;;3.50;;
11996;SDS011;6058;48.704;9.474;2023-01-06T05:32:54;3.30;;;3.00;;
11996;SDS011;6058;48.704;9.474;2023-01-06T05:35:50;11.43;;;3.20;;
11996;SDS011;6058;48.704;9.474;2023-01-06T05:42:21;4.43;;;2.93;;
11996;SDS011;6058;48.704;9.474;2023-01-06T05:45:24;2.63;;;2.47;;
11996;SDS011;6058;48.704;9.474;2023-01-06T05:51:27;2.53;;;2.33;;
11996;SDS011;6058;48.704;9.474;2023-01-06T05:54:21;2.77;;;2.57;;
11996;SDS011;6058;48.704;9.474;2023-01-06T06:03:11;3.10;;;2.90;;
11996;SDS011;6058;48.704;9.474;2023-01-06T06:06:13;2.80;;;2.60;;
11996;SDS011;6058;48.704;9.474;2023-01-06T06:09:05;2.53;;;2.33;;
11996;SDS011;6058;48.704;9.474;2023-01-06T07:01:02;6.47;;;2.33;;
11996;SDS011;6058;48.704;9.474;2023-01-06T07:07:01;2.30;;;2.10;;
11996;SDS011;6058;48.704;9.474;2023-01-06T07:31:30;2.10;;;2.00;;
11996;SDS011;6058;48.704;9.474;2023-01-06T07:34:22;2.67;;;2.30;;
11996;SDS011;6058;48.704;9.474;2023-01-06T07:37:18;2.30;;;2.10;;
11996;SDS011;6058;48.704;9.474;2023-01-06T07:48:49;2.50;;;2.30;;
11996;SDS011;6058;48.704;9.474;2023-01-06T07:51:42;2.00;;;1.90;;
11996;SDS011;6058;48.704;9.474;2023-01-06T07:54:42;2.37;;;2.27;;
11996;SDS011;6058;48.704;9.474;2023-01-06T07:57:45;2.37;;;2.10;;
11996;SDS011;6058;48.704;9.474;2023-01-06T08:00:33;2.10;;;2.00;;
11996;SDS011;6058;48.704;9.474;2023-01-06T08:24:59;2.00;;;1.90;;
11996;SDS011;6058;48.704;9.474;2023-01-06T08:27:55;2.23;;;2.03;;
11996;SDS011;6058;48.704;9.474;2023-01-06T08:33:08;1.83;;;1.73;;
11996;SDS011;6058;48.704;9.474;2023-01-06T08:36:00;2.10;;;1.90;;
11996;SDS011;6058;48.704;9.474;2023-01-06T08:39:02;2.00;;;1.70;;
11996;SDS011;6058;48.704;9.474;2023-01-06T08:42:08;1.97;;;1.87;;
11996;SDS011;6058;48.704;9.474;2023-01-06T08:45:06;1.97;;;1.77;;
11996;SDS011;6058;48.704;9.474;2023-01-06T08:48:00;3.33;;;1.80;;
11996;SDS011;6058;48.704;9.474;2023-01-06T08:54:00;2.03;;;1.93;;
11996;SDS011;6058;48.704;9.474;2023-01-06T09:11:53;5.13;;;2.60;;
11996;SDS011;6058;48.704;9.474;2023-01-06T09:14:57;2.60;;;2.40;;
11996;SDS011;6058;48.704;9.474;2023-01-06T09:17:52;2.90;;;2.70;;
11996;SDS011;6058;48.704;9.474;2023-01-06T09:24:17;2.87;;;2.57;;
11996;SDS011;6058;48.704;9.474;2023-01-06T09:27:06;4.73;;;2.70;;
11996;SDS011;6058;48.704;9.474;2023-01-06T09:33:11;4.43;;;3.07;;
11996;SDS011;6058;48.704;9.474;2023-01-06T09:36:00;2.67;;;2.47;;
11996;SDS011;6058;48.704;9.474;2023-01-06T09:38:55;3.03;;;2.67;;
11996;SDS011;6058;48.704;9.474;2023-01-06T09:54:08;3.97;;;3.00;;
11996;SDS011;6058;48.704;9.474;2023-01-06T10:07:28;5.17;;;4.50;;
11996;SDS011;6058;48.704;9.474;2023-01-06T10:10:23;4.00;;;3.70;;
11996;SDS011;6058;48.704;9.474;2023-01-06T10:13:09;3.50;;;3.17;;
11996;SDS011;6058;48.704;9.474;2023-01-06T10:15:45;3.10;;;2.80;;
11996;SDS011;6058;48.704;9.474;2023-01-06T10:18:36;2.50;;;2.30;;
11996;SDS011;6058;48.704;9.474;2023-01-06T10:21:24;3.03;;;2.20;;
11996;SDS011;6058;48.704;9.474;2023-01-06T10:27:07;2.67;;;2.03;;
11996;SDS011;6058;48.704;9.474;2023-01-06T10:29:55;2.17;;;1.50;;
11996;SDS011;6058;48.704;9.474;2023-01-06T10:32:48;2.87;;;1.80;;
11996;SDS011;6058;48.704;9.474;2023-01-06T10:35:23;2.20;;;2.00;;
11996;SDS011;6058;48.704;9.474;2023-01-06T10:45:55;1.80;;;1.70;;
11996;SDS011;6058;48.704;9.474;2023-01-06T10:49:02;1.43;;;1.40;;
11996;SDS011;6058;48.704;9.474;2023-01-06T10:51:58;1.73;;;1.63;;
11996;SDS011;6058;48.704;9.474;2023-01-06T10:54:54;1.70;;;1.60;;
11996;SDS011;6058;48.704;9.474;2023-01-06T10:57:53;1.87;;;1.60;;
11996;SDS011;6058;48.704;9.474;2023-01-06T11:00:55;2.27;;;1.20;;
11996;SDS011;6058;48.704;9.474;2023-01-06T11:03:39;2.67;;;2.30;;
11996;SDS011;6058;48.704;9.474;2023-01-06T11:06:41;2.00;;;1.30;;
11996;SDS011;6058;48.704;9.474;2023-01-06T11:09:23;1.30;;;1.20;;
11996;SDS011;6058;48.704;9.474;2023-01-06T11:12:08;3.23;;;1.70;;
11996;SDS011;6058;48.704;9.474;2023-01-06T11:15:00;1.00;;;1.00;;
11996;SDS011;6058;48.704;9.474;2023-01-06T11:17:51;1.70;;;1.10;;
11996;SDS011;6058;48.704;9.474;2023-01-06T11:20:44;1.30;;;1.20;;
11996;SDS011;6058;48.704;9.474;2023-01-06T11:23:46;3.00;;;1.20;;
11996;SDS011;6058;48.704;9.474;2023-01-06T11:26:39;1.30;;;0.97;;
11996;SDS011;6058;48.704;9.474;2023-01-06T11:29:28;1.10;;;1.10;;
11996;SDS011;6058;48.704;9.474;2023-01-06T11:32:14;1.00;;;1.00;;
11996;SDS011;6058;48.704;9.474;2023-01-06T11:35:04;1.77;;;1.10;;
11996;SDS011;6058;48.704;9.474;2023-01-06T11:37:52;2.20;;;0.93;;
11996;SDS011;6058;48.704;9.474;2023-01-06T11:41:10;0.90;;;0.90;;
11996;SDS011;6058;48.704;9.474;2023-01-06T11:43:54;3.43;;;1.20;;
11996;SDS011;6058;48.704;9.474;2023-01-06T11:46:25;1.43;;;1.10;;
11996;SDS011;6058;48.704;9.474;2023-01-06T11:49:00;1.50;;;1.00;;
11996;SDS011;6058;48.704;9.474;2023-01-06T11:51:50;1.27;;;1.17;;
11996;SDS011;6058;48.704;9.474;2023-01-06T11:54:36;1.00;;;1.00;;
11996;SDS011;6058;48.704;9.474;2023-01-06T12:02:19;1.00;;;1.00;;
11996;SDS011;6058;48.704;9.474;2023-01-06T12:05:04;0.70;;;0.70;;
11996;SDS011;6058;48.704;9.474;2023-01-06T12:08:08;0.93;;;0.93;;
11996;SDS011;6058;48.704;9.474;2023-01-06T12:11:04;1.17;;;1.10;;
11996;SDS011;6058;48.704;9.474;2023-01-06T12:13:58;1.00;;;0.90;;
11996;SDS011;6058;48.704;9.474;2023-01-06T12:16:48;0.90;;;0.90;;
11996;SDS011;6058;48.704;9.474;2023-01-06T12:19:29;0.80;;;0.80;;
11996;SDS011;6058;48.704;9.474;2023-01-06T12:22:11;0.60;;;0.60;;
11996;SDS011;6058;48.704;9.474;2023-01-06T12:25:09;0.83;;;0.83;;
11996;SDS011;6058;48.704;9.474;2023-01-06T12:27:51;1.03;;;0.93;;
11996;SDS011;6058;48.704;9.474;2023-01-06T12:30:28;0.50;;;0.50;;
11996;SDS011;6058;48.704;9.474;2023-01-06T12:33:10;0.67;;;0.67;;
11996;SDS011;6058;48.704;9.474;2023-01-06T12:35:55;0.50;;;0.50;;
11996;SDS011;6058;48.704;9.474;2023-01-06T12:38:40;0.60;;;0.60;;
11996;SDS011;6058;48.704;9.474;2023-01-06T12:41:23;0.70;;;0.67;;
11996;SDS011;6058;48.704;9.474;2023-01-06T12:44:05;1.03;;;0.50;;
11996;SDS011;6058;48.704;9.474;2023-01-06T12:46:54;0.50;;;0.50;;
11996;SDS011;6058;48.704;9.474;2023-01-06T12:49:39;0.47;;;0.47;;
11996;SDS011;6058;48.704;9.474;2023-01-06T12:52:18;0.73;;;0.50;;
11996;SDS011;6058;48.704;9.474;2023-01-06T12:55:02;0.83;;;0.47;;
11996;SDS011;6058;48.704;9.474;2023-01-06T12:57:48;0.80;;;0.80;;
11996;SDS011;6058;48.704;9.474;2023-01-06T13:06:20;0.60;;;0.60;;
11996;SDS011;6058;48.704;9.474;2023-01-06T13:08:59;1.27;;;0.90;;
11996;SDS011;6058;48.704;9.474;2023-01-06T13:11:44;0.43;;;0.43;;
11996;SDS011;6058;48.704;9.474;2023-01-06T13:14:26;0.93;;;0.77;;
11996;SDS011;6058;48.704;9.474;2023-01-06T13:17:04;1.17;;;0.40;;
11996;SDS011;6058;48.704;9.474;2023-01-06T13:19:52;0.60;;;0.60;;
11996;SDS011;6058;48.704;9.474;2023-01-06T13:28:50;0.50;;;0.50;;
11996;SDS011;6058;48.704;9.474;2023-01-06T13:31:36;0.40;;;0.40;;
11996;SDS011;6058;48.704;9.474;2023-01-06T13:34:26;0.40;;;0.40;;
11996;SDS011;6058;48.704;9.474;2023-01-06T13:37:18;1.07;;;0.50;;
11996;SDS011;6058;48.704;9.474;2023-01-06T13:39:58;0.50;;;0.50;;
11996;SDS011;6058;48.704;9.474;2023-01-06T13:42:38;0.50;;;0.50;;
11996;SDS011;6058;48.704;9.474;2023-01-06T13:45:27;0.30;;;0.30;;
11996;SDS011;6058;48.704;9.474;2023-01-06T13:48:14;10.67;;;6.60;;
11996;SDS011;6058;48.704;9.474;2023-01-06T13:51:03;12.13;;;8.13;;
11996;SDS011;6058;48.704;9.474;2023-01-06T13:53:50;6.10;;;5.27;;
11996;SDS011;6058;48.704;9.474;2023-01-06T13:59:51;0.40;;;0.40;;
11996;SDS011;6058;48.704;9.474;2023-01-06T14:08:40;0.57;;;0.40;;
11996;SDS011;6058;48.704;9.474;2023-01-06T14:11:28;0.60;;;0.60;;
11996;SDS011;6058;48.704;9.474;2023-01-06T14:14:04;1.10;;;1.10;;
11996;SDS011;6058;48.704;9.474;2023-01-06T14:16:42;0.50;;;0.50;;
11996;SDS011;6058;48.704;9.474;2023-01-06T14:19:20;0.40;;;0.40;;
11996;SDS011;6058;48.704;9.474;2023-01-06T14:22:10;0.40;;;0.40;;
11996;SDS011;6058;48.704;9.474;2023-01-06T14:35:09;0.70;;;0.70;;
11996;SDS011;6058;48.704;9.474;2023-01-06T14:37:57;0.70;;;0.67;;
11996;SDS011;6058;48.704;9.474;2023-01-06T14:40:43;1.17;;;0.80;;
11996;SDS011;6058;48.704;9.474;2023-01-06T14:43:28;0.43;;;0.40;;
11996;SDS011;6058;48.704;9.474;2023-01-06T14:46:01;0.57;;;0.57;;
11996;SDS011;6058;48.704;9.474;2023-01-06T14:48:36;0.50;;;0.50;;
11996;SDS011;6058;48.704;9.474;2023-01-06T14:51:22;0.60;;;0.60;;
11996;SDS011;6058;48.704;9.474;2023-01-06T14:56:53;0.87;;;0.80;;
11996;SDS011;6058;48.704;9.474;2023-01-06T14:59:40;0.60;;;0.60;;
11996;SDS011;6058;48.704;9.474;2023-01-06T15:15:54;0.50;;;0.50;;
11996;SDS011;6058;48.704;9.474;2023-01-06T15:18:40;0.50;;;0.50;;
11996;SDS011;6058;48.704;9.474;2023-01-06T15:21:18;0.63;;;0.50;;
11996;SDS011;6058;48.704;9.474;2023-01-06T15:27:32;0.50;;;0.50;;
11996;SDS011;6058;48.704;9.474;2023-01-06T15:55:46;1.80;;;1.60;;
11996;SDS011;6058;48.704;9.474;2023-01-06T15:58:56;2.40;;;1.60;;
11996;SDS011;6058;48.704;9.474;2023-01-06T16:02:05;1.90;;;1.70;;
11996;SDS011;6058;48.704;9.474;2023-01-06T16:05:04;1.80;;;1.70;;
11996;SDS011;6058;48.704;9.474;2023-01-06T16:07:59;1.50;;;1.40;;
11996;SDS011;6058;48.704;9.474;2023-01-06T16:39:09;2.03;;;1.80;;
11996;SDS011;6058;48.704;9.474;2023-01-06T16:51:15;1.87;;;1.60;;
11996;SDS011;6058;48.704;9.474;2023-01-06T16:54:26;2.03;;;1.63;;
11996;SDS011;6058;48.704;9.474;2023-01-06T16:57:30;1.70;;;1.60;;
11996;SDS011;6058;48.704;9.474;2023-01-06T17:00:14;1.63;;;1.43;;
11996;SDS011;6058;48.704;9.474;2023-01-06T17:02:59;1.70;;;1.60;;
11996;SDS011;6058;48.704;9.474;2023-01-06T17:05:55;2.30;;;2.00;;
11996;SDS011;6058;48.704;9.474;2023-01-06T17:08:41;2.00;;;1.80;;
11996;SDS011;6058;48.704;9.474;2023-01-06T17:15:16;1.47;;;1.33;;
11996;SDS011;6058;48.704;9.474;2023-01-06T17:21:14;1.47;;;1.23;;
11996;SDS011;6058;48.704;9.474;2023-01-06T17:24:08;1.60;;;1.50;;
11996;SDS011;6058;48.704;9.474;2023-01-06T17:26:53;2.70;;;2.07;;
11996;SDS011;6058;48.704;9.474;2023-01-06T17:29:49;12.03;;;5.73;;
11996;SDS011;6058;48.704;9.474;2023-01-06T17:35:31;4.90;;;3.27;;
11996;SDS011;6058;48.704;9.474;2023-01-06T17:41:58;4.57;;;3.30;;
11996;SDS011;6058;48.704;9.474;2023-01-06T17:44:34;4.47;;;3.00;;
11996;SDS011;6058;48.704;9.474;2023-01-06T17:47:33;2.53;;;2.10;;
11996;SDS011;6058;48.704;9.474;2023-01-06T17:50:25;1.60;;;1.40;;
11996;SDS011;6058;48.704;9.474;2023-01-06T17:53:32;3.67;;;1.80;;
11996;SDS011;6058;48.704;9.474;2023-01-06T17:56:27;5.27;;;3.17;;
11996;SDS011;6058;48.704;9.474;2023-01-06T17:59:01;3.17;;;2.87;;
11996;SDS011;6058;48.704;9.474;2023-01-06T18:01:43;4.07;;;2.70;;
11996;SDS011;6058;48.704;9.474;2023-01-06T18:04:34;4.50;;;3.10;;
11996;SDS011;6058;48.704;9.474;2023-01-06T18:07:17;2.80;;;2.50;;
11996;SDS011;6058;48.704;9.474;2023-01-06T18:13:04;4.67;;;3.03;;
11996;SDS011;6058;48.704;9.474;2023-01-06T18:16:13;1.60;;;1.50;;
11996;SDS011;6058;48.704;9.474;2023-01-06T18:22:34;2.10;;;1.70;;
11996;SDS011;6058;48.704;9.474;2023-01-06T18:25:23;2.80;;;1.73;;
11996;SDS011;6058;48.704;9.474;2023-01-06T19:26:49;2.40;;;2.13;;
11996;SDS011;6058;48.704;9.474;2023-01-06T19:29:48;8.50;;;6.33;;
11996;SDS011;6058;48.704;9.474;2023-01-06T19:32:36;13.57;;;8.43;;
11996;SDS011;6058;48.704;9.474;2023-01-06T19:35:42;4.80;;;4.27;;
11996;SDS011;6058;48.704;9.474;2023-01-06T19:38:39;5.57;;;3.07;;
11996;SDS011;6058;48.704;9.474;2023-01-06T19:44:16;5.53;;;4.53;;
11996;SDS011;6058;48.704;9.474;2023-01-06T19:46:50;16.70;;;9.43;;
11996;SDS011;6058;48.704;9.474;2023-01-06T19:49:35;21.77;;;9.57;;
11996;SDS011;6058;48.704;9.474;2023-01-06T19:52:20;9.27;;;5.47;;
11996;SDS011;6058;48.704;9.474;2023-01-06T19:55:18;13.93;;;7.03;;
11996;SDS011;6058;48.704;9.474;2023-01-06T19:58:01;8.90;;;5.90;;
11996;SDS011;6058;48.704;9.474;2023-01-06T20:01:07;7.60;;;4.77;;
11996;SDS011;6058;48.704;9.474;2023-01-06T20:03:54;6.67;;;5.13;;
11996;SDS011;6058;48.704;9.474;2023-01-06T20:06:46;7.83;;;5.73;;
11996;SDS011;6058;48.704;9.474;2023-01-06T20:09:37;9.30;;;6.57;;
11996;SDS011;6058;48.704;9.474;2023-01-06T20:12:25;6.00;;;5.10;;
11996;SDS011;6058;48.704;9.474;2023-01-06T20:15:08;7.97;;;5.80;;
11996;SDS011;6058;48.704;9.474;2023-01-06T20:17:51;7.87;;;5.80;;
11996;SDS011;6058;48.704;9.474;2023-01-06T20:20:28;5.97;;;4.30;;
11996;SDS011;6058;48.704;9.474;2023-01-06T20:23:16;7.13;;;4.97;;
11996;SDS011;6058;48.704;9.474;2023-01-06T20:25:54;7.60;;;5.47;;
11996;SDS011;6058;48.704;9.474;2023-01-06T20:28:27;9.20;;;5.87;;
11996;SDS011;6058;48.704;9.474;2023-01-06T20:31:05;7.93;;;4.93;;
11996;SDS011;6058;48.704;9.474;2023-01-06T20:33:45;7.70;;;5.23;;
11996;SDS011;6058;48.704;9.474;2023-01-06T20:36:20;8.57;;;4.80;;
11996;SDS011;6058;48.704;9.474;2023-01-06T20:38:59;6.47;;;4.43;;
11996;SDS011;6058;48.704;9.474;2023-01-06T20:41:39;5.27;;;3.87;;
11996;SDS011;6058;48.704;9.474;2023-01-06T20:44:13;5.50;;;4.50;;
11996;SDS011;6058;48.704;9.474;2023-01-06T20:46:56;4.70;;;3.70;;
11996;SDS011;6058;48.704;9.474;2023-01-06T20:49:42;4.87;;;3.80;;
11996;SDS011;6058;48.704;9.474;2023-01-06T20:52:22;6.47;;;4.93;;
11996;SDS011;6058;48.704;9.474;2023-01-06T20:55:01;6.93;;;4.13;;
11996;SDS011;6058;48.704;9.474;2023-01-06T20:57:45;7.97;;;6.20;;
11996;SDS011;6058;48.704;9.474;2023-01-06T21:00:30;10.20;;;6.73;;
11996;SDS011;6058;48.704;9.474;2023-01-06T21:03:12;8.07;;;6.03;;
11996;SDS011;6058;48.704;9.474;2023-01-06T21:05:59;6.87;;;5.13;;
11996;SDS011;6058;48.704;9.474;2023-01-06T21:08:39;8.07;;;5.53;;
11996;SDS011;6058;48.704;9.474;2023-01-06T21:11:14;8.00;;;5.73;;
11996;SDS011;6058;48.704;9.474;2023-01-06T21:13:54;7.63;;;5.10;;
11996;SDS011;6058;48.704;9.474;2023-01-06T21:16:40;5.37;;;4.50;;
11996;SDS011;6058;48.704;9.474;2023-01-06T21:27:28;9.30;;;6.73;;
11996;SDS011;6058;48.704;9.474;2023-01-06T21:30:15;13.10;;;7.50;;
11996;SDS011;6058;48.704;9.474;2023-01-06T21:32:56;14.17;;;8.60;;
11996;SDS011;6058;48.704;9.474;2023-01-06T21:35:54;9.67;;;7.47;;
11996;SDS011;6058;48.704;9.474;2023-01-06T21:38:46;10.50;;;7.30;;
11996;SDS011;6058;48.704;9.474;2023-01-06T21:41:24;8.57;;;6.63;;
11996;SDS011;6058;48.704;9.474;2023-01-06T21:44:13;7.47;;;6.40;;
11996;SDS011;6058;48.704;9.474;2023-01-06T21:47:20;9.53;;;6.30;;
11996;SDS011;6058;48.704;9.474;2023-01-06T21:50:00;9.73;;;6.97;;
11996;SDS011;6058;48.704;9.474;2023-01-06T21:52:40;10.20;;;6.73;;
11996;SDS011;6058;48.704;9.474;2023-01-06T21:55:31;6.67;;;5.60;;
11996;SDS011;6058;48.704;9.474;2023-01-06T21:58:07;8.90;;;6.20;;
11996;SDS011;6058;48.704;9.474;2023-01-06T22:01:01;10.23;;;5.60;;
11996;SDS011;6058;48.704;9.474;2023-01-06T22:06:58;7.33;;;5.43;;
11996;SDS011;6058;48.704;9.474;2023-01-06T22:09:51;4.77;;;3.63;;
11996;SDS011;6058;48.704;9.474;2023-01-06T22:12:35;5.37;;;3.67;;
11996;SDS011;6058;48.704;9.474;2023-01-06T22:15:34;5.63;;;3.90;;
11996;SDS011;6058;48.704;9.474;2023-01-06T22:18:44;3.93;;;3.53;;
11996;SDS011;6058;48.704;9.474;2023-01-06T22:21:37;4.90;;;3.13;;
11996;SDS011;6058;48.704;9.474;2023-01-06T22:24:15;3.77;;;3.37;;
11996;SDS011;6058;48.704;9.474;2023-01-06T22:26:55;9.67;;;5.83;;
11996;SDS011;6058;48.704;9.474;2023-01-06T22:29:46;8.47;;;5.77;;
11996;SDS011;6058;48.704;9.474;2023-01-06T22:32:40;11.33;;;5.60;;
11996;SDS011;6058;48.704;9.474;2023-01-06T22:35:19;7.07;;;5.00;;
11996;SDS011;6058;48.704;9.474;2023-01-06T22:37:56;5.70;;;4.67;;
11996;SDS011;6058;48.704;9.474;2023-01-06T22:40:34;8.03;;;5.47;;
11996;SDS011;6058;48.704;9.474;2023-01-06T22:43:17;5.97;;;4.57;;
11996;SDS011;6058;48.704;9.474;2023-01-06T22:45:53;5.23;;;4.20;;
11996;SDS011;6058;48.704;9.474;2023-01-06T22:48:43;5.43;;;4.50;;
11996;SDS011;6058;48.704;9.474;2023-01-06T22:51:21;5.57;;;4.20;;
11996;SDS011;6058;48.704;9.474;2023-01-06T22:54:02;5.17;;;4.37;;
11996;SDS011;6058;48.704;9.474;2023-01-06T22:56:43;4.37;;;3.63;;
11996;SDS011;6058;48.704;9.474;2023-01-06T22:59:42;6.47;;;4.50;;
11996;SDS011;6058;48.704;9.474;2023-01-06T23:02:18;4.90;;;4.30;;
11996;SDS011;6058;48.704;9.474;2023-01-06T23:04:57;7.13;;;3.93;;
11996;SDS011;6058;48.704;9.474;2023-01-06T23:07:40;5.53;;;4.07;;
11996;SDS011;6058;48.704;9.474;2023-01-06T23:10:29;4.23;;;3.67;;
11996;SDS011;6058;48.704;9.474;2023-01-06T23:13:18;4.87;;;4.37;;
11996;SDS011;6058;48.704;9.474;2023-01-06T23:21:10;6.57;;;4.57;;
11996;SDS011;6058;48.704;9.474;2023-01-06T23:24:21;5.53;;;4.10;;
11996;SDS011;6058;48.704;9.474;2023-01-06T23:27:25;4.40;;;4.00;;
11996;SDS011;6058;48.704;9.474;2023-01-06T23:30:15;6.47;;;3.97;;
11996;SDS011;6058;48.704;9.474;2023-01-06T23:33:06;6.07;;;4.37;;
11996;SDS011;6058;48.704;9.474;2023-01-06T23:36:00;5.57;;;4.37;;
11996;SDS011;6058;48.704;9.474;2023-01-06T23:39:11;6.07;;;4.47;;
11996;SDS011;6058;48.704;9.474;2023-01-06T23:42:04;5.03;;;3.60;;
11996;SDS011;6058;48.704;9.474;2023-01-06T23:44:53;5.30;;;4.10;;
11996;SDS011;6058;48.704;9.474;2023-01-06T23:47:45;6.33;;;4.07;;
11996;SDS011;6058;48.704;9.474;2023-01-06T23:50:30;5.07;;;4.27;;
11996;SDS011;6058;48.704;9.474;2023-01-06T23:53:12;5.63;;;4.20;;
11996;SDS011;6058;48.704;9.474;2023-01-06T23:55:56;4.00;;;3.53;;
11996;SDS011;6058;48.704;9.474;2023-01-06T23:58:44;4.47;;;4.07;;
